Time,TemperatureF,DewpointF,PressureIn,WindDirection,WindDirectionDegrees,WindSpeedMPH,WindSpeedGustMPH,Humidity,HourlyPrecipIn,Conditions,Clouds,dailyrainin,SoftwareType,DateUTC
2013-07-28 00:02:00,62.0,61.0,30.09,NW,308,0.0,0.0,96,0.00,,,0.00,,2013-07-28 04:02:00,
2013-07-28 00:12:00,61.0,60.0,30.09,NW,308,0.0,0.0,96,0.00,,,0.00,,2013-07-28 04:12:00,
2013-07-28 00:22:00,61.0,60.0,30.09,NW,308,0.0,0.0,97,0.00,,,0.00,,2013-07-28 04:22:00,
2013-07-28 00:32:00,61.0,60.0,30.08,NW,308,0.0,0.0,97,0.00,,,0.00,,2013-07-28 04:32:00,
2013-07-28 00:53:00,60.0,59.0,30.08,NW,308,0.0,0.0,97,0.00,,,0.00,,2013-07-28 04:53:00,
2013-07-28 01:02:00,60.0,59.0,30.08,NW,308,0.0,0.0,97,0.00,,,0.00,,2013-07-28 05:02:00,
2013-07-28 01:12:00,60.0,59.0,30.09,NW,308,0.0,0.0,97,0.00,,,0.00,,2013-07-28 05:12:00,
2013-07-28 01:22:00,60.0,59.0,30.09,NW,308,0.0,0.0,97,0.00,,,0.00,,2013-07-28 05:22:00,
2013-07-28 01:32:00,60.0,59.0,30.09,NW,308,0.0,0.0,97,0.00,,,0.00,,2013-07-28 05:32:00,
2013-07-28 01:43:00,60.0,59.0,30.09,NW,308,0.0,0.0,97,0.00,,,0.00,,2013-07-28 05:43:00,
2013-07-28 01:53:00,60.0,59.0,30.09,NW,308,0.0,0.0,98,0.00,,,0.00,,2013-07-28 05:53:00,
2013-07-28 02:02:00,60.0,59.0,30.09,NW,308,0.0,0.0,98,0.00,,,0.00,,2013-07-28 06:02:00,
2013-07-28 02:12:00,61.0,60.0,30.08,NW,308,0.0,0.0,98,0.00,,,0.00,,2013-07-28 06:12:00,
2013-07-28 02:22:00,60.0,59.0,30.08,NW,308,0.0,0.0,98,0.00,,,0.00,,2013-07-28 06:22:00,
2013-07-28 02:32:00,60.0,59.0,30.08,NW,308,0.0,0.0,98,0.00,,,0.00,,2013-07-28 06:32:00,
2013-07-28 02:43:00,60.0,59.0,30.07,NW,308,0.0,0.0,98,0.00,,,0.00,,2013-07-28 06:43:00,
2013-07-28 02:52:00,60.0,59.0,30.07,NW,308,0.0,0.0,98,0.00,,,0.00,,2013-07-28 06:52:00,
2013-07-28 03:02:00,60.0,59.0,30.07,NW,308,0.0,0.0,98,0.00,,,0.00,,2013-07-28 07:02:00,
2013-07-28 03:12:00,60.0,59.0,30.07,NW,308,0.0,0.0,98,0.00,,,0.00,,2013-07-28 07:12:00,
2013-07-28 03:23:00,60.0,59.0,30.07,NW,308,0.0,0.0,98,0.00,,,0.00,,2013-07-28 07:23:00,
2013-07-28 03:32:00,61.0,60.0,30.07,NW,308,0.0,0.0,98,0.00,,,0.00,,2013-07-28 07:32:00,
2013-07-28 03:53:00,61.0,60.0,30.08,NW,308,0.0,0.0,98,0.00,,,0.00,,2013-07-28 07:53:00,
2013-07-28 04:02:00,62.0,61.0,30.08,NW,308,0.0,0.0,98,0.00,,,0.00,,2013-07-28 08:02:00,
2013-07-28 04:12:00,62.0,61.0,30.08,NW,308,0.0,0.0,98,0.00,,,0.00,,2013-07-28 08:12:00,
2013-07-28 04:22:00,62.0,61.0,30.08,NW,308,0.0,0.0,98,0.00,,,0.00,,2013-07-28 08:22:00,
2013-07-28 04:33:00,62.0,61.0,30.08,NW,308,0.0,0.0,98,0.00,,,0.00,,2013-07-28 08:33:00,
2013-07-28 04:43:00,63.0,62.0,30.08,NW,308,0.0,0.0,98,0.00,,,0.00,,2013-07-28 08:43:00,
2013-07-28 04:53:00,63.0,62.0,30.08,NW,308,0.0,0.0,98,0.00,,,0.00,,2013-07-28 08:53:00,
2013-07-28 05:02:00,63.0,62.0,30.06,NW,308,0.0,0.0,98,0.00,,,0.00,,2013-07-28 09:02:00,
2013-07-28 05:12:00,63.0,62.0,30.07,NW,308,0.0,0.0,98,0.00,,,0.00,,2013-07-28 09:12:00,
2013-07-28 05:22:00,63.0,62.0,30.06,NW,308,0.0,0.0,98,0.00,,,0.00,,2013-07-28 09:22:00,
2013-07-28 05:32:00,63.0,62.0,30.06,NW,307,0.0,0.0,98,0.00,,,0.00,,2013-07-28 09:32:00,
2013-07-28 05:43:00,63.0,62.0,30.06,NW,308,0.0,0.0,98,0.00,,,0.00,,2013-07-28 09:43:00,
2013-07-28 05:53:00,63.0,62.0,30.06,NW,308,0.0,0.0,98,0.00,,,0.00,,2013-07-28 09:53:00,
2013-07-28 06:02:00,63.0,62.0,30.07,NW,308,0.0,0.0,98,0.00,,,0.00,,2013-07-28 10:02:00,
2013-07-28 06:12:00,63.0,62.0,30.07,NW,308,0.0,0.0,98,0.00,,,0.00,,2013-07-28 10:12:00,
2013-07-28 06:22:00,63.0,62.0,30.07,NW,308,0.0,0.0,98,0.00,,,0.00,,2013-07-28 10:22:00,
2013-07-28 06:33:00,64.0,63.0,30.08,NW,308,0.0,0.0,98,0.00,,,0.00,,2013-07-28 10:33:00,
2013-07-28 06:42:00,64.0,63.0,30.07,NW,308,0.0,0.0,98,0.00,,,0.00,,2013-07-28 10:42:00,
2013-07-28 06:53:00,64.0,64.0,30.08,NW,308,0.0,0.0,99,0.00,,,0.00,,2013-07-28 10:53:00,
2013-07-28 07:12:00,65.0,65.0,30.09,NW,308,0.0,0.0,99,0.00,,,0.00,,2013-07-28 11:12:00,
2013-07-28 07:22:00,65.0,64.0,30.09,NW,308,0.0,0.0,98,0.00,,,0.00,,2013-07-28 11:22:00,
2013-07-28 07:33:00,66.0,65.0,30.10,NW,308,0.0,0.0,98,0.00,,,0.00,,2013-07-28 11:33:00,
2013-07-28 07:43:00,66.0,65.0,30.10,NW,308,0.0,0.0,98,0.00,,,0.00,,2013-07-28 11:43:00,
2013-07-28 07:54:00,66.0,65.0,30.10,NW,308,0.0,0.0,98,0.00,,,0.00,,2013-07-28 11:54:00,
2013-07-28 08:03:00,66.0,65.0,30.09,NW,319,0.0,0.0,97,0.00,,,0.00,,2013-07-28 12:03:00,
2013-07-28 08:12:00,67.0,65.0,30.10,NW,320,0.0,0.0,94,0.00,,,0.00,,2013-07-28 12:12:00,
2013-07-28 08:22:00,68.0,66.0,30.11,NW,320,0.0,0.0,93,0.00,,,0.00,,2013-07-28 12:22:00,
2013-07-28 08:33:00,68.0,65.0,30.11,NW,320,0.0,0.0,90,0.00,,,0.00,,2013-07-28 12:33:00,
2013-07-28 08:43:00,69.0,66.0,30.11,NW,321,0.0,0.0,90,0.00,,,0.00,,2013-07-28 12:43:00,
2013-07-28 08:53:00,69.0,66.0,30.11,NW,320,0.0,0.0,90,0.00,,,0.00,,2013-07-28 12:53:00,
2013-07-28 09:12:00,69.0,65.0,30.09,NW,322,0.0,1.0,87,0.00,,,0.00,,2013-07-28 13:12:00,
2013-07-28 09:22:00,70.0,66.0,30.09,NW,320,0.0,1.0,87,0.00,,,0.00,,2013-07-28 13:22:00,
2013-07-28 09:32:00,70.0,66.0,30.09,NW,320,0.0,0.0,88,0.00,,,0.00,,2013-07-28 13:32:00,
2013-07-28 09:43:00,71.0,67.0,30.09,NW,320,0.0,0.0,88,0.00,,,0.00,,2013-07-28 13:43:00,
2013-07-28 09:53:00,72.0,67.0,30.09,NW,308,0.0,1.0,84,0.00,,,0.00,,2013-07-28 13:53:00,
2013-07-28 10:02:00,72.0,66.0,30.09,SSW,194,0.0,1.0,81,0.00,,,0.00,,2013-07-28 14:02:00,
2013-07-28 10:23:00,73.0,67.0,30.09,SSW,193,0.0,0.0,81,0.00,,,0.00,,2013-07-28 14:23:00,
2013-07-28 10:53:00,76.0,67.0,30.09,WSW,250,0.0,1.0,75,0.00,,,0.00,,2013-07-28 14:53:00,
2013-07-28 11:03:00,77.0,68.0,30.09,SW,219,0.0,1.0,73,0.00,,,0.00,,2013-07-28 15:03:00,
2013-07-28 11:13:00,77.0,70.0,30.08,SW,219,0.0,1.0,78,0.00,,,0.00,,2013-07-28 15:13:00,
2013-07-28 11:23:00,77.0,68.0,30.08,South,183,0.0,1.0,73,0.00,,,0.00,,2013-07-28 15:23:00,
2013-07-28 11:33:00,78.0,67.0,30.07,WSW,255,0.0,3.0,69,0.00,,,0.00,,2013-07-28 15:33:00,
2013-07-28 11:43:00,79.0,68.0,30.07,South,177,0.0,2.0,69,0.00,,,0.00,,2013-07-28 15:43:00,
2013-07-28 11:53:00,81.0,68.0,30.07,SSE,155,1.0,2.0,64,0.00,,,0.00,,2013-07-28 15:53:00,
2013-07-28 12:03:00,81.0,69.0,30.08,North,354,0.0,1.0,67,0.00,,,0.00,,2013-07-28 16:03:00,
2013-07-28 12:12:00,82.0,69.0,30.08,SW,229,0.0,2.0,65,0.00,,,0.00,,2013-07-28 16:12:00,
2013-07-28 12:22:00,82.0,69.0,30.07,East,100,0.0,2.0,64,0.00,,,0.00,,2013-07-28 16:22:00,
2013-07-28 12:33:00,81.0,68.0,30.08,SSW,211,0.0,1.0,65,0.00,,,0.00,,2013-07-28 16:33:00,
2013-07-28 12:43:00,82.0,70.0,30.08,South,189,0.0,1.0,68,0.00,,,0.00,,2013-07-28 16:43:00,
2013-07-28 12:52:00,80.0,67.0,30.08,SSW,203,0.0,1.0,65,0.00,,,0.00,,2013-07-28 16:52:00,
2013-07-28 13:02:00,80.0,68.0,30.08,WSW,256,1.0,2.0,66,0.00,,,0.00,,2013-07-28 17:02:00,
2013-07-28 13:13:00,80.0,70.0,30.08,SSE,160,0.0,2.0,71,0.00,,,0.00,,2013-07-28 17:13:00,
2013-07-28 13:23:00,80.0,69.0,30.08,SSW,204,0.0,1.0,69,0.00,,,0.00,,2013-07-28 17:23:00,
2013-07-28 13:33:00,81.0,70.0,30.07,SSE,160,0.0,1.0,70,0.00,,,0.00,,2013-07-28 17:33:00,
2013-07-28 14:03:00,79.0,69.0,30.07,ESE,113,0.0,1.0,72,0.00,,,0.00,,2013-07-28 18:03:00,
2013-07-28 14:23:00,78.0,69.0,30.07,SE,125,0.0,1.0,75,0.00,,,0.00,,2013-07-28 18:23:00,
2013-07-28 14:33:00,77.0,70.0,30.07,SE,126,0.0,0.0,79,0.00,,,0.00,,2013-07-28 18:33:00,
2013-07-28 14:43:00,77.0,71.0,30.06,SE,146,0.0,0.0,81,0.00,,,0.00,,2013-07-28 18:43:00,
2013-07-28 14:52:00,77.0,70.0,30.06,SE,146,0.0,0.0,79,0.00,,,0.00,,2013-07-28 18:52:00,
2013-07-28 15:03:00,77.0,70.0,30.06,SE,146,0.0,1.0,80,0.00,,,0.00,,2013-07-28 19:03:00,
2013-07-28 15:12:00,77.0,71.0,30.06,SE,146,0.0,0.0,82,0.00,,,0.00,,2013-07-28 19:12:00,
2013-07-28 15:23:00,77.0,70.0,30.05,SE,146,0.0,0.0,79,0.00,,,0.00,,2013-07-28 19:23:00,
2013-07-28 15:33:00,77.0,70.0,30.05,SW,233,0.0,2.0,79,0.00,,,0.00,,2013-07-28 19:33:00,
2013-07-28 15:52:00,77.0,70.0,30.04,South,184,0.0,1.0,79,0.00,,,0.00,,2013-07-28 19:52:00,
2013-07-28 16:03:00,77.0,68.0,30.04,ESE,117,0.0,2.0,75,0.00,,,0.00,,2013-07-28 20:03:00,
2013-07-28 16:23:00,76.0,68.0,30.05,SSW,204,0.0,0.0,76,0.00,,,0.00,,2013-07-28 20:23:00,
2013-07-28 16:33:00,76.0,69.0,30.05,West,271,0.0,0.0,78,0.00,,,0.00,,2013-07-28 20:33:00,
2013-07-28 16:52:00,76.0,68.0,30.06,West,271,0.0,0.0,77,0.00,,,0.00,,2013-07-28 20:52:00,
2013-07-28 17:03:00,76.0,68.0,30.06,SSW,212,0.0,2.0,76,0.00,,,0.00,,2013-07-28 21:03:00,
2013-07-28 17:13:00,76.0,67.0,30.06,West,267,0.0,2.0,74,0.00,,,0.00,,2013-07-28 21:13:00,
2013-07-28 17:23:00,76.0,67.0,30.06,SW,232,0.0,1.0,74,0.00,,,0.00,,2013-07-28 21:23:00,
2013-07-28 17:33:00,76.0,67.0,30.06,West,262,0.0,1.0,75,0.00,,,0.00,,2013-07-28 21:33:00,
2013-07-28 17:44:00,75.0,67.0,30.06,SSW,197,0.0,0.0,77,0.00,,,0.00,,2013-07-28 21:44:00,
2013-07-28 17:52:00,74.0,67.0,30.07,SSW,198,0.0,1.0,80,0.00,,,0.00,,2013-07-28 21:52:00,
2013-07-28 18:02:00,74.0,68.0,30.07,SSW,198,0.0,0.0,81,0.00,,,0.00,,2013-07-28 22:02:00,
2013-07-28 18:12:00,74.0,68.0,30.06,SE,142,0.0,1.0,81,0.00,,,0.00,,2013-07-28 22:12:00,
2013-07-28 18:22:00,75.0,69.0,30.06,SE,142,0.0,0.0,82,0.00,,,0.00,,2013-07-28 22:22:00,
2013-07-28 18:32:00,75.0,69.0,30.07,WSW,246,0.0,3.0,81,0.00,,,0.00,,2013-07-28 22:32:00,
2013-07-28 18:43:00,75.0,68.0,30.07,SE,145,0.0,2.0,80,0.00,,,0.00,,2013-07-28 22:43:00,
2013-07-28 18:52:00,75.0,69.0,30.07,SW,224,0.0,1.0,81,0.00,,,0.00,,2013-07-28 22:52:00,
2013-07-28 19:03:00,75.0,69.0,30.07,SW,224,0.0,1.0,81,0.00,,,0.00,,2013-07-28 23:03:00,
2013-07-28 19:12:00,74.0,68.0,30.08,SSW,211,0.0,1.0,81,0.00,,,0.00,,2013-07-28 23:12:00,
2013-07-28 19:22:00,74.0,68.0,30.08,SW,226,0.0,1.0,81,0.00,,,0.00,,2013-07-28 23:22:00,
2013-07-28 19:33:00,74.0,68.0,30.08,SW,226,0.0,1.0,81,0.00,,,0.00,,2013-07-28 23:33:00,
2013-07-28 19:43:00,73.0,67.0,30.08,SW,226,0.0,0.0,81,0.00,,,0.00,,2013-07-28 23:43:00,
2013-07-28 19:53:00,73.0,68.0,30.08,SW,227,0.0,0.0,84,0.00,,,0.00,,2013-07-28 23:53:00,
2013-07-28 20:03:00,72.0,67.0,30.08,SW,226,0.0,1.0,83,0.00,,,0.00,,2013-07-29 00:03:00,
2013-07-28 20:22:00,71.0,66.0,30.06,East,101,0.0,0.0,84,0.00,,,0.00,,2013-07-29 00:22:00,
2013-07-28 20:32:00,71.0,65.0,30.06,SSE,160,0.0,1.0,81,0.00,,,0.00,,2013-07-29 00:32:00,
2013-07-28 20:52:00,71.0,66.0,30.06,SW,221,0.0,0.0,83,0.00,,,0.00,,2013-07-29 00:52:00,
2013-07-28 21:02:00,71.0,66.0,30.05,SW,221,0.0,0.0,85,0.00,,,0.00,,2013-07-29 01:02:00,
2013-07-28 21:14:00,70.0,66.0,30.05,SW,221,0.0,0.0,87,0.00,,,0.00,,2013-07-29 01:14:00,
2013-07-28 21:29:00,70.0,66.0,30.05,SW,221,0.0,0.0,87,0.00,,,0.00,,2013-07-29 01:29:00,
2013-07-28 21:37:00,70.0,66.0,30.05,SW,221,0.0,0.0,88,0.00,,,0.00,,2013-07-29 01:37:00,
2013-07-28 21:46:00,70.0,66.0,30.08,East,99,0.0,2.0,88,0.00,,,0.00,,2013-07-29 01:46:00,
2013-07-28 22:14:00,68.0,66.0,30.07,ESE,120,0.0,0.0,92,0.00,,,0.00,,2013-07-29 02:14:00,
2013-07-28 22:27:00,68.0,66.0,30.08,ESE,120,0.0,0.0,92,0.00,,,0.00,,2013-07-29 02:27:00,
2013-07-28 22:38:00,68.0,66.0,30.08,ESE,120,0.0,0.0,93,0.00,,,0.00,,2013-07-29 02:38:00,
2013-07-28 22:57:00,67.0,65.0,30.10,ESE,120,0.0,0.0,94,0.00,,,0.00,,2013-07-29 02:57:00,
2013-07-28 23:05:00,67.0,65.0,30.10,ESE,120,0.0,0.0,94,0.00,,,0.00,,2013-07-29 03:05:00,
2013-07-28 23:25:00,67.0,65.0,30.09,ESE,120,0.0,0.0,94,0.00,,,0.00,,2013-07-29 03:25:00,
2013-07-28 23:48:00,67.0,65.0,30.10,ESE,120,0.0,0.0,94,0.00,,,0.00,,2013-07-29 03:48:00,
2013-07-28 23:57:00,67.0,66.0,30.09,ESE,120,0.0,0.0,95,0.00,,,0.00,,2013-07-29 03:57:00,